Time;durP1;ratioP1;P1;durP2;ratioP2;P2;SDS_P1;SDS_P2;PMS_P1;PMS_P2;Temp;Humidity;BMP_temperature;BMP_pressure;BME280_temperature;BME280_humidity;BME280_pressure;Samples;Min_cycle;Max_cycle;Signal;HPM_P1;HPM_P2
2024/04/01 00:00:37;;;;;;;2.53;1.20;;;13.20;99.90;;;;;;4917334;29;20846;-69
2024/04/01 00:03:05;;;;;;;1.10;0.80;;;13.20;99.90;;;;;;4911694;29;20463;-69
2024/04/01 00:05:32;;;;;;;1.23;0.90;;;13.20;99.90;;;;;;4920154;29;20460;-69
2024/04/01 00:07:59;;;;;;;2.80;0.90;;;13.10;99.90;;;;;;4921560;29;20864;-69
2024/04/01 00:10:26;;;;;;;1.00;0.77;;;13.10;99.90;;;;;;4916519;29;20556;-69
2024/04/01 00:12:53;;;;;;;1.50;0.80;;;13.10;99.90;;;;;;4915143;29;20481;-69
2024/04/01 00:15:22;;;;;;;1.83;0.97;;;13.10;99.90;;;;;;4918056;29;20484;-69
2024/04/01 00:17:48;;;;;;;3.43;1.30;;;13.00;99.90;;;;;;4918948;29;20468;-69
2024/04/01 00:20:14;;;;;;;1.30;1.10;;;13.00;99.90;;;;;;4919331;29;20597;-69
2024/04/01 00:22:40;;;;;;;1.60;1.00;;;13.00;99.90;;;;;;4920343;29;20484;-70
2024/04/01 00:25:07;;;;;;;1.10;0.90;;;13.10;99.90;;;;;;4923470;29;20464;-69
2024/04/01 00:27:34;;;;;;;1.17;0.90;;;13.20;99.90;;;;;;4920704;29;20220;-69
2024/04/01 00:30:01;;;;;;;4.10;1.03;;;13.20;99.90;;;;;;4922292;29;20457;-69
2024/04/01 00:32:30;;;;;;;5.33;0.90;;;13.20;99.90;;;;;;4922788;28;20488;-69
2024/04/01 00:34:57;;;;;;;1.13;0.90;;;13.10;99.90;;;;;;4920062;29;20539;-69
2024/04/01 00:37:23;;;;;;;1.10;0.80;;;13.20;99.90;;;;;;4923535;29;20585;-69
2024/04/01 00:39:50;;;;;;;1.57;0.90;;;13.10;99.90;;;;;;4919297;29;20464;-69
2024/04/01 00:42:15;;;;;;;1.40;1.03;;;12.90;99.90;;;;;;4922345;29;20239;-70
2024/04/01 00:44:42;;;;;;;1.50;0.80;;;12.80;99.90;;;;;;4918268;29;20458;-69
2024/04/01 00:47:08;;;;;;;1.23;0.97;;;12.80;99.90;;;;;;4925462;29;20205;-69
2024/04/01 00:49:36;;;;;;;2.00;1.00;;;12.80;99.90;;;;;;4911111;29;20471;-69
2024/04/01 00:52:03;;;;;;;1.77;1.10;;;12.70;99.90;;;;;;4918432;29;20480;-70
2024/04/01 00:54:30;;;;;;;2.43;1.03;;;12.70;99.90;;;;;;4921993;29;20482;-69
2024/04/01 00:56:56;;;;;;;2.00;0.80;;;12.70;99.90;;;;;;4918429;29;20460;-70
2024/04/01 00:59:23;;;;;;;2.27;1.67;;;12.70;99.90;;;;;;4914318;29;20456;-69
2024/04/01 01:01:50;;;;;;;1.10;0.73;;;12.80;99.90;;;;;;4919289;29;20574;-70
2024/04/01 01:04:17;;;;;;;1.20;0.87;;;12.80;99.90;;;;;;4909834;29;20481;-69
2024/04/01 01:06:47;;;;;;;1.10;0.80;;;12.70;99.90;;;;;;4916019;29;21004;-69
2024/04/01 01:09:14;;;;;;;6.60;1.10;;;12.70;99.90;;;;;;4918780;29;20454;-69
2024/04/01 01:11:40;;;;;;;3.00;1.10;;;12.70;99.90;;;;;;4924054;29;20488;-69
2024/04/01 01:14:07;;;;;;;1.93;1.10;;;12.60;99.90;;;;;;4921155;29;20463;-69
2024/04/01 01:16:33;;;;;;;2.33;1.30;;;12.60;99.90;;;;;;4921089;29;21040;-69
2024/04/01 01:19:00;;;;;;;1.47;1.00;;;12.60;99.90;;;;;;4921742;29;20453;-69
2024/04/01 01:21:26;;;;;;;1.07;0.90;;;12.60;99.90;;;;;;4915331;29;20221;-69
2024/04/01 01:23:54;;;;;;;1.00;0.80;;;12.60;99.90;;;;;;4922280;29;20710;-69
2024/04/01 01:26:20;;;;;;;1.40;1.00;;;12.50;99.90;;;;;;4922585;29;20475;-68
2024/04/01 01:28:49;;;;;;;1.17;0.93;;;12.50;99.90;;;;;;4918798;29;20472;-68
2024/04/01 01:31:15;;;;;;;1.10;0.80;;;12.60;99.90;;;;;;4921307;29;20587;-68
2024/04/01 01:33:42;;;;;;;1.40;1.00;;;12.70;99.90;;;;;;4919517;29;20461;-68
2024/04/01 01:36:08;;;;;;;1.33;0.83;;;12.70;99.90;;;;;;4923988;29;20209;-69
2024/04/01 01:38:34;;;;;;;1.80;1.07;;;12.70;99.90;;;;;;4925458;29;20488;-68
2024/04/01 01:41:02;;;;;;;2.73;0.80;;;12.80;99.90;;;;;;4924530;29;20494;-69
2024/04/01 01:43:28;;;;;;;1.10;0.80;;;12.80;99.90;;;;;;4923038;28;20516;-69
2024/04/01 01:45:54;;;;;;;1.00;0.70;;;12.80;99.90;;;;;;4921662;29;20442;-69
2024/04/01 01:48:21;;;;;;;1.07;0.80;;;12.90;99.90;;;;;;4918429;29;20457;-70
2024/04/01 01:50:47;;;;;;;1.53;0.90;;;12.90;99.90;;;;;;4923283;29;20201;-69
2024/04/01 01:53:16;;;;;;;1.10;0.87;;;13.00;99.90;;;;;;4921424;29;20464;-69
2024/04/01 01:55:42;;;;;;;1.57;1.10;;;13.00;99.90;;;;;;4917093;29;20818;-70
2024/04/01 01:58:10;;;;;;;1.07;0.90;;;13.00;99.90;;;;;;4921341;29;20467;-69
2024/04/01 02:00:35;;;;;;;1.03;0.77;;;12.90;99.90;;;;;;4924075;29;20216;-70
2024/04/01 02:03:06;;;;;;;1.20;0.80;;;12.90;99.90;;;;;;4922232;28;20814;-69
2024/04/01 02:05:32;;;;;;;1.50;1.30;;;13.00;99.90;;;;;;4918383;28;20252;-70
2024/04/01 02:07:58;;;;;;;1.33;0.90;;;12.90;99.90;;;;;;4922285;29;20553;-69
2024/04/01 02:10:24;;;;;;;1.70;1.60;;;13.00;99.90;;;;;;4922945;29;20472;-69
2024/04/01 02:12:51;;;;;;;1.10;0.80;;;12.90;99.90;;;;;;4921951;29;20570;-68
2024/04/01 02:15:19;;;;;;;1.10;0.83;;;12.90;99.90;;;;;;4919762;29;20857;-69
2024/04/01 02:17:46;;;;;;;8.63;0.90;;;12.80;99.90;;;;;;4920516;29;20520;-68
2024/04/01 02:20:15;;;;;;;4.03;1.10;;;12.80;99.90;;;;;;4914461;29;20470;-68
2024/04/01 02:22:43;;;;;;;1.40;0.90;;;12.80;99.90;;;;;;4922743;29;20499;-68
2024/04/01 02:25:10;;;;;;;1.10;0.80;;;12.80;99.90;;;;;;4916129;29;20491;-70
2024/04/01 02:27:36;;;;;;;2.50;1.00;;;12.80;99.90;;;;;;4916839;29;20456;-70
2024/04/01 02:30:05;;;;;;;1.40;1.17;;;12.80;99.90;;;;;;4924896;29;21223;-68
2024/04/01 02:32:33;;;;;;;1.10;0.90;;;12.70;99.90;;;;;;4917303;29;20571;-68
2024/04/01 02:34:59;;;;;;;1.20;1.00;;;12.70;99.90;;;;;;4916675;29;20661;-68
2024/04/01 02:37:26;;;;;;;3.00;0.90;;;12.70;99.90;;;;;;4917285;29;20457;-68
2024/04/01 02:39:52;;;;;;;1.00;0.80;;;12.70;99.90;;;;;;4919499;29;20217;-68
2024/04/01 02:42:18;;;;;;;1.77;1.10;;;12.70;99.90;;;;;;4913892;29;20586;-68
2024/04/01 02:44:44;;;;;;;1.10;0.80;;;12.70;99.90;;;;;;4923085;29;20339;-68
2024/04/01 02:47:11;;;;;;;1.30;1.00;;;12.60;99.90;;;;;;4915749;29;20461;-69
2024/04/01 02:49:40;;;;;;;1.20;0.80;;;12.50;99.90;;;;;;4922102;29;20208;-69
2024/04/01 02:52:07;;;;;;;1.13;0.70;;;12.50;99.90;;;;;;4918521;29;20564;-69
2024/04/01 02:54:32;;;;;;;1.20;0.90;;;12.50;99.90;;;;;;4926159;29;20461;-69
2024/04/01 02:56:59;;;;;;;1.50;1.13;;;12.60;99.90;;;;;;4925138;29;20449;-70
2024/04/01 02:59:25;;;;;;;1.20;0.80;;;12.50;99.90;;;;;;4916732;29;20210;-69
2024/04/01 03:01:52;;;;;;;1.10;0.80;;;12.50;99.90;;;;;;4915207;29;20483;-69
2024/04/01 03:04:18;;;;;;;1.23;0.90;;;12.50;99.90;;;;;;4919686;29;20223;-69
2024/04/01 03:06:46;;;;;;;1.67;1.00;;;12.50;99.90;;;;;;4918741;29;20465;-69
2024/04/01 03:09:13;;;;;;;1.13;0.80;;;12.40;99.90;;;;;;4925586;29;20236;-69
2024/04/01 03:11:40;;;;;;;1.60;1.10;;;12.40;99.90;;;;;;4915762;29;20484;-70
2024/04/01 03:14:06;;;;;;;1.10;0.90;;;12.50;99.90;;;;;;4921616;29;20613;-69
2024/04/01 03:16:33;;;;;;;2.13;1.93;;;12.50;99.90;;;;;;4915070;29;20464;-69
2024/04/01 03:18:58;;;;;;;3.10;2.23;;;12.40;99.90;;;;;;4918431;29;20216;-69
2024/04/01 03:21:25;;;;;;;1.97;1.67;;;12.30;99.90;;;;;;4917718;29;20489;-70
2024/04/01 03:23:52;;;;;;;5.37;2.10;;;12.20;99.90;;;;;;4922348;29;20248;-70
2024/04/01 03:26:20;;;;;;;3.30;1.33;;;12.20;99.90;;;;;;4917536;29;20492;-69
2024/04/01 03:28:45;;;;;;;3.70;1.83;;;12.20;99.90;;;;;;4918404;29;20472;-69
2024/04/01 03:31:12;;;;;;;3.10;1.77;;;12.20;99.90;;;;;;4921902;29;20477;-68
2024/04/01 03:33:38;;;;;;;2.03;0.93;;;12.20;99.90;;;;;;4917449;29;20205;-69
2024/04/01 03:36:06;;;;;;;1.10;0.90;;;12.20;99.90;;;;;;4916376;29;20465;-70
2024/04/01 03:38:32;;;;;;;2.67;1.50;;;12.10;99.90;;;;;;4921848;29;20295;-69
2024/04/01 03:41:01;;;;;;;1.33;0.90;;;12.10;99.90;;;;;;4917662;29;20504;-68
2024/04/01 03:43:27;;;;;;;1.77;1.13;;;12.20;99.90;;;;;;4922340;29;20511;-70
2024/04/01 03:46:03;;;;;;;1.63;1.10;;;12.20;99.90;;;;;;4915234;29;21322;-70
2024/04/01 03:48:34;;;;;;;1.57;0.80;;;12.20;99.90;;;;;;4915579;29;21144;-70
2024/04/01 03:51:00;;;;;;;1.90;1.30;;;12.30;99.90;;;;;;4918467;29;20473;-70
2024/04/01 03:53:27;;;;;;;1.63;1.30;;;12.30;99.90;;;;;;4920962;29;20452;-69
2024/04/01 03:55:53;;;;;;;2.00;1.27;;;12.30;99.90;;;;;;4915701;29;20552;-69
2024/04/01 03:58:21;;;;;;;1.73;1.00;;;12.30;99.90;;;;;;4920843;29;21229;-70
2024/04/01 04:00:47;;;;;;;1.87;1.30;;;12.30;99.90;;;;;;4919584;29;21109;-70
2024/04/01 04:03:14;;;;;;;3.37;1.60;;;12.30;99.90;;;;;;4915326;29;20546;-70
2024/04/01 04:05:39;;;;;;;2.33;1.40;;;12.30;99.90;;;;;;4916061;29;20525;-70
2024/04/01 04:08:06;;;;;;;1.87;1.20;;;12.40;99.90;;;;;;4916430;29;20533;-70
2024/04/01 04:10:33;;;;;;;1.67;1.10;;;12.40;99.90;;;;;;4918903;29;20238;-69
2024/04/01 04:13:00;;;;;;;2.93;1.37;;;12.40;99.90;;;;;;4920207;29;20817;-69
2024/04/01 04:15:27;;;;;;;2.03;1.10;;;12.40;99.90;;;;;;4917308;29;20559;-70
2024/04/01 04:17:54;;;;;;;1.20;1.00;;;12.10;99.90;;;;;;4914856;29;20445;-69
2024/04/01 04:20:20;;;;;;;1.30;0.93;;;12.10;99.90;;;;;;4917189;29;20830;-69
2024/04/01 04:22:46;;;;;;;1.50;1.20;;;12.20;99.90;;;;;;4920232;29;20500;-69
2024/04/01 04:25:12;;;;;;;1.50;1.20;;;12.10;99.90;;;;;;4922772;29;20212;-69
2024/04/01 04:27:39;;;;;;;3.30;1.20;;;12.20;99.90;;;;;;4918964;29;20477;-69
2024/04/01 04:30:08;;;;;;;1.30;1.17;;;12.20;99.90;;;;;;4914893;29;20476;-69
2024/04/01 04:32:40;;;;;;;2.30;1.53;;;12.20;99.90;;;;;;4919379;29;21131;-69
2024/04/01 04:35:08;;;;;;;1.10;0.90;;;12.10;99.90;;;;;;4921154;29;20873;-69
2024/04/01 04:37:35;;;;;;;1.10;0.90;;;12.00;99.90;;;;;;4923872;29;20460;-69
2024/04/01 04:40:02;;;;;;;1.87;1.00;;;12.00;99.90;;;;;;4917587;29;20481;-69
2024/04/01 04:42:29;;;;;;;1.00;0.70;;;12.00;99.90;;;;;;4916069;29;20477;-69
2024/04/01 04:44:55;;;;;;;0.90;0.60;;;11.90;99.90;;;;;;4920166;29;20506;-69
2024/04/01 04:47:22;;;;;;;1.40;0.90;;;11.90;99.90;;;;;;4922895;29;20467;-69
2024/04/01 04:49:49;;;;;;;7.23;1.97;;;12.00;99.90;;;;;;4919703;29;20239;-69
2024/04/01 04:52:15;;;;;;;2.83;2.17;;;12.00;99.90;;;;;;4912950;29;20486;-69
2024/04/01 04:54:41;;;;;;;1.70;1.30;;;12.10;99.90;;;;;;4917404;29;20835;-69
2024/04/01 04:57:08;;;;;;;2.37;1.70;;;12.20;99.90;;;;;;4921057;29;20473;-69
2024/04/01 04:59:34;;;;;;;3.63;1.77;;;12.20;99.90;;;;;;4917754;29;20967;-70
2024/04/01 05:02:06;;;;;;;1.27;1.13;;;11.90;99.90;;;;;;4917417;29;20468;-69
2024/04/01 05:04:32;;;;;;;2.33;1.90;;;11.60;99.90;;;;;;4917783;29;20331;-69
2024/04/01 05:07:00;;;;;;;1.80;1.50;;;11.60;99.90;;;;;;4921248;29;20483;-69
2024/04/01 05:09:29;;;;;;;6.97;1.93;;;11.60;99.90;;;;;;4916519;29;20473;-68
2024/04/01 05:11:56;;;;;;;2.10;1.80;;;11.50;99.90;;;;;;4917533;29;21023;-68
2024/04/01 05:14:22;;;;;;;4.60;1.50;;;11.70;99.90;;;;;;4916859;29;20794;-69
2024/04/01 05:16:49;;;;;;;3.30;1.70;;;11.80;99.90;;;;;;4919662;29;20471;-69
2024/04/01 05:19:16;;;;;;;1.30;1.07;;;11.90;99.90;;;;;;4921967;29;20581;-69
2024/04/01 05:21:42;;;;;;;3.80;1.30;;;11.90;99.90;;;;;;4920639;29;20480;-69
2024/04/01 05:24:10;;;;;;;2.47;1.00;;;11.90;99.90;;;;;;4922007;29;20582;-69
2024/04/01 05:26:36;;;;;;;4.93;1.13;;;12.00;99.90;;;;;;4920597;29;20460;-69
2024/04/01 05:29:02;;;;;;;3.97;1.60;;;12.00;99.90;;;;;;4921703;28;20468;-69
2024/04/01 05:31:29;;;;;;;1.30;0.90;;;12.00;99.90;;;;;;4919034;29;20998;-69
2024/04/01 05:33:56;;;;;;;1.27;1.10;;;11.90;99.90;;;;;;4920280;28;20197;-69
2024/04/01 05:36:26;;;;;;;1.53;1.20;;;11.80;99.90;;;;;;4922163;29;20524;-69
2024/04/01 05:38:53;;;;;;;1.23;1.10;;;11.90;99.90;;;;;;4918584;29;20535;-69
2024/04/01 05:41:22;;;;;;;5.93;1.33;;;11.90;99.90;;;;;;4965564;23;20491;-69
2024/04/01 05:43:48;;;;;;;3.30;1.10;;;12.00;99.90;;;;;;4955176;28;20484;-69
2024/04/01 05:46:15;;;;;;;2.13;1.43;;;11.90;99.90;;;;;;4955144;28;20483;-69
2024/04/01 05:48:41;;;;;;;2.03;1.00;;;11.90;99.90;;;;;;4954601;28;20640;-69
2024/04/01 05:51:08;;;;;;;2.40;1.10;;;11.90;99.90;;;;;;4953328;28;20502;-69
2024/04/01 05:53:34;;;;;;;3.77;1.43;;;11.90;99.90;;;;;;4952675;28;21760;-70
2024/04/01 05:56:04;;;;;;;1.23;0.90;;;11.80;99.90;;;;;;4955224;28;20574;-69
2024/04/01 05:58:31;;;;;;;1.57;1.40;;;11.60;99.90;;;;;;4947697;28;20688;-70
2024/04/01 06:01:00;;;;;;;2.77;1.20;;;11.60;99.90;;;;;;4953732;28;20475;-70
2024/04/01 06:03:25;;;;;;;3.60;1.00;;;11.60;99.90;;;;;;4950996;28;21204;-70
2024/04/01 06:05:52;;;;;;;9.63;2.03;;;11.70;99.90;;;;;;4956166;28;20578;-69
2024/04/01 06:08:18;;;;;;;6.03;1.30;;;11.80;99.90;;;;;;4950758;28;20197;-70
2024/04/01 06:10:45;;;;;;;3.27;1.43;;;11.80;99.90;;;;;;4949809;28;21200;-70
2024/04/01 06:13:11;;;;;;;6.30;2.20;;;11.80;99.90;;;;;;4958397;28;20214;-69
2024/04/01 06:15:39;;;;;;;3.03;1.60;;;11.80;99.90;;;;;;4953982;28;20550;-69
2024/04/01 06:18:05;;;;;;;1.70;1.40;;;11.90;99.90;;;;;;4956673;28;20684;-69
2024/04/01 06:20:32;;;;;;;2.87;1.60;;;11.90;99.90;;;;;;4963388;28;20474;-69
2024/04/01 06:22:58;;;;;;;1.97;1.33;;;11.90;99.90;;;;;;4954218;28;20512;-69
2024/04/01 06:25:25;;;;;;;3.10;1.33;;;12.00;99.90;;;;;;4958261;28;20462;-69
2024/04/01 06:27:50;;;;;;;4.20;2.13;;;11.90;99.90;;;;;;4959353;28;20227;-69
2024/04/01 06:30:17;;;;;;;3.83;1.37;;;11.90;99.90;;;;;;4964359;28;20558;-68
2024/04/01 06:32:44;;;;;;;3.20;1.77;;;11.80;99.90;;;;;;4958553;28;20223;-69
2024/04/01 06:35:11;;;;;;;3.57;1.80;;;11.90;99.90;;;;;;4958299;28;20484;-69
2024/04/01 06:37:37;;;;;;;3.90;1.80;;;11.90;99.90;;;;;;4963138;28;20481;-68
2024/04/01 06:40:05;;;;;;;1.73;1.40;;;11.90;99.90;;;;;;4961837;28;20459;-68
2024/04/01 06:42:30;;;;;;;2.03;1.40;;;12.00;99.90;;;;;;4962829;28;20482;-69
2024/04/01 06:44:57;;;;;;;1.57;1.47;;;12.00;99.90;;;;;;4955601;28;20930;-69
2024/04/01 06:47:23;;;;;;;2.83;2.10;;;12.00;99.90;;;;;;4962971;28;20787;-69
2024/04/01 06:49:51;;;;;;;4.23;1.50;;;11.90;99.90;;;;;;4961847;28;20456;-70
2024/04/01 06:52:17;;;;;;;3.33;1.43;;;11.90;99.90;;;;;;4960727;28;20235;-70
2024/04/01 06:54:44;;;;;;;1.80;1.53;;;11.90;99.90;;;;;;4957767;28;20971;-69
2024/04/01 06:57:10;;;;;;;2.40;1.87;;;12.00;99.90;;;;;;4958524;28;20203;-69
2024/04/01 06:59:37;;;;;;;8.30;1.57;;;12.00;99.90;;;;;;4956132;28;20970;-69
2024/04/01 07:02:03;;;;;;;3.13;1.40;;;12.00;99.90;;;;;;4954001;28;20228;-67
2024/04/01 07:04:29;;;;;;;4.23;2.13;;;12.10;99.90;;;;;;4955277;28;20434;-69
2024/04/01 07:06:56;;;;;;;2.27;1.40;;;12.20;99.90;;;;;;4954004;28;20470;-70
2024/04/01 07:09:23;;;;;;;10.13;1.80;;;12.20;99.90;;;;;;4957761;28;20468;-69
2024/04/01 07:11:49;;;;;;;3.50;1.90;;;12.20;99.90;;;;;;4956913;28;20486;-69
2024/04/01 07:14:16;;;;;;;2.43;1.97;;;12.20;99.90;;;;;;4956952;28;20486;-69
2024/04/01 07:16:41;;;;;;;2.60;1.80;;;12.20;99.90;;;;;;4953267;28;20231;-70
2024/04/01 07:19:08;;;;;;;4.50;1.80;;;12.30;99.90;;;;;;4966563;28;20473;-70
2024/04/01 07:21:34;;;;;;;2.33;1.77;;;12.30;99.90;;;;;;4955557;28;20674;-69
2024/04/01 07:24:02;;;;;;;1.60;1.50;;;12.20;99.90;;;;;;4953641;28;20459;-69
2024/04/01 07:26:29;;;;;;;3.03;1.50;;;12.10;99.90;;;;;;4961441;28;20218;-70
2024/04/01 07:28:55;;;;;;;2.27;1.80;;;12.10;99.90;;;;;;4959892;28;20459;-70
2024/04/01 07:31:21;;;;;;;1.60;1.50;;;12.10;99.90;;;;;;4962682;28;20510;-70
2024/04/01 07:33:48;;;;;;;2.47;1.60;;;12.20;99.90;;;;;;4956271;28;20960;-70
2024/04/01 07:36:14;;;;;;;2.70;1.93;;;12.40;99.90;;;;;;4964661;28;20302;-69
2024/04/01 07:38:41;;;;;;;2.43;1.70;;;12.30;99.90;;;;;;4956457;28;20462;-69
2024/04/01 07:41:08;;;;;;;1.67;1.50;;;12.30;99.90;;;;;;4955875;28;20505;-69
2024/04/01 07:43:34;;;;;;;2.03;1.40;;;12.50;99.90;;;;;;4957004;28;20437;-69
2024/04/01 07:46:00;;;;;;;1.77;1.67;;;12.60;99.90;;;;;;4957780;28;20832;-70
2024/04/01 07:48:27;;;;;;;2.03;1.83;;;12.70;99.90;;;;;;4951336;28;20431;-70
2024/04/01 07:51:00;;;;;;;3.27;1.70;;;12.90;99.90;;;;;;4951753;28;20582;-70
2024/04/01 07:53:27;;;;;;;1.50;1.40;;;12.80;99.90;;;;;;4958000;28;20468;-69
2024/04/01 07:55:53;;;;;;;2.43;1.90;;;13.00;99.90;;;;;;4960302;28;20466;-70
2024/04/01 07:58:21;;;;;;;4.37;1.70;;;13.00;99.90;;;;;;4956007;28;20471;-69
2024/04/01 08:00:47;;;;;;;1.90;1.70;;;12.90;99.90;;;;;;4957799;28;20204;-70
2024/04/01 08:03:14;;;;;;;2.20;1.50;;;12.70;99.90;;;;;;4956680;28;20799;-69
2024/04/01 08:05:40;;;;;;;1.93;1.50;;;13.00;99.90;;;;;;4955076;28;20203;-71
2024/04/01 08:08:09;;;;;;;2.63;1.40;;;13.20;99.90;;;;;;4950005;28;20446;-69
2024/04/01 08:10:35;;;;;;;1.60;1.40;;;13.40;99.90;;;;;;4951775;28;21168;-68
2024/04/01 08:13:01;;;;;;;2.43;1.40;;;13.50;99.90;;;;;;4951371;28;20621;-69
2024/04/01 08:15:29;;;;;;;1.67;1.57;;;13.60;99.90;;;;;;4956614;28;20238;-69
2024/04/01 08:17:55;;;;;;;3.10;1.50;;;13.70;99.90;;;;;;4951858;28;21241;-69
2024/04/01 08:20:21;;;;;;;1.27;0.97;;;13.60;99.90;;;;;;4956659;28;20473;-70
2024/04/01 08:22:48;;;;;;;1.43;1.03;;;13.50;99.90;;;;;;4945934;28;20485;-69
2024/04/01 08:25:14;;;;;;;1.43;1.30;;;13.50;99.90;;;;;;4943953;28;20204;-69
2024/04/01 08:27:40;;;;;;;1.83;1.30;;;13.30;99.90;;;;;;4949568;28;20428;-69
2024/04/01 08:30:07;;;;;;;1.30;1.03;;;13.20;99.90;;;;;;4950783;28;20212;-69
2024/04/01 08:32:36;;;;;;;4.90;1.17;;;12.90;99.90;;;;;;4946929;28;20760;-69
2024/04/01 08:35:01;;;;;;;1.37;0.87;;;12.90;99.90;;;;;;4952489;28;20498;-69
2024/04/01 08:37:28;;;;;;;1.60;1.50;;;12.90;99.90;;;;;;4952623;28;20703;-69
2024/04/01 08:39:54;;;;;;;1.30;1.07;;;12.90;99.90;;;;;;4948821;28;20853;-69
2024/04/01 08:42:22;;;;;;;0.90;0.60;;;12.90;99.90;;;;;;4955390;28;20482;-69
2024/04/01 08:44:50;;;;;;;1.43;1.17;;;12.80;99.90;;;;;;4952864;28;20463;-69
2024/04/01 08:47:19;;;;;;;0.90;0.60;;;12.80;99.90;;;;;;4957007;28;20450;-68
2024/04/01 08:49:55;;;;;;;1.10;1.00;;;12.70;99.90;;;;;;4952639;28;20454;-70
2024/04/01 08:52:26;;;;;;;0.90;0.60;;;12.60;99.90;;;;;;4959130;28;20477;-69
2024/04/01 08:54:53;;;;;;;0.90;0.60;;;12.50;99.90;;;;;;4951409;28;20981;-69
2024/04/01 08:57:21;;;;;;;0.90;0.60;;;12.50;99.90;;;;;;4958628;28;20812;-69
2024/04/01 08:59:47;;;;;;;0.90;0.60;;;12.50;99.90;;;;;;4956298;28;20981;-69
2024/04/01 09:02:14;;;;;;;0.90;0.70;;;12.60;99.90;;;;;;4956572;28;20479;-69
2024/04/01 09:04:40;;;;;;;2.43;1.37;;;12.60;99.90;;;;;;4956864;28;20460;-69
2024/04/01 09:07:15;;;;;;;5.30;2.27;;;12.50;99.90;;;;;;4961474;28;21289;-70
2024/04/01 09:09:40;;;;;;;2.73;2.40;;;12.40;99.90;;;;;;4957858;28;20234;-69
2024/04/01 09:12:10;;;;;;;4.93;1.93;;;12.30;99.90;;;;;;4951102;28;20575;-69
2024/04/01 09:14:35;;;;;;;1.97;1.87;;;12.30;99.90;;;;;;4955425;28;20232;-69
2024/04/01 09:17:02;;;;;;;2.53;1.90;;;12.50;99.90;;;;;;4952869;28;20438;-69
2024/04/01 09:19:29;;;;;;;8.53;1.80;;;12.60;99.90;;;;;;4955924;28;20196;-69
2024/04/01 09:22:01;;;;;;;3.17;2.47;;;12.60;99.90;;;;;;4957455;28;20935;-69
2024/04/01 09:24:28;;;;;;;3.87;2.80;;;12.50;99.90;;;;;;4946751;28;20467;-68
2024/04/01 09:26:54;;;;;;;2.07;1.87;;;12.50;99.90;;;;;;4951455;28;20466;-68
2024/04/01 09:29:20;;;;;;;3.40;2.83;;;12.50;99.90;;;;;;4954224;28;20459;-67
2024/04/01 09:31:49;;;;;;;2.23;2.00;;;12.40;99.90;;;;;;4950370;28;21120;-68
2024/04/01 09:34:15;;;;;;;2.47;1.87;;;12.50;99.90;;;;;;4945993;28;20489;-69
2024/04/01 09:36:42;;;;;;;2.60;1.70;;;12.40;99.90;;;;;;4954519;28;20459;-68
2024/04/01 09:39:08;;;;;;;3.90;2.17;;;12.20;99.90;;;;;;4946647;28;20922;-68
2024/04/01 09:41:37;;;;;;;2.50;2.30;;;12.30;99.90;;;;;;4950561;28;20483;-69
2024/04/01 09:44:03;;;;;;;3.50;3.00;;;12.30;99.90;;;;;;4951090;28;20486;-69
2024/04/01 09:46:32;;;;;;;2.60;2.10;;;12.30;99.90;;;;;;4959456;28;20512;-69
2024/04/01 09:48:58;;;;;;;3.40;2.80;;;12.20;99.90;;;;;;4956317;28;20464;-69
2024/04/01 09:51:27;;;;;;;3.33;2.60;;;12.20;99.90;;;;;;4951687;28;20475;-68
2024/04/01 09:53:53;;;;;;;4.10;3.03;;;12.20;99.90;;;;;;4950049;28;20526;-68
2024/04/01 09:57:09;;;;;;;4.77;3.17;;;12.10;99.90;;;;;;4951572;28;20459;-69
2024/04/01 10:00:09;;;;;;;3.80;3.10;;;12.20;99.90;;;;;;4953235;28;20211;-69
2024/04/01 10:03:27;;;;;;;4.13;2.80;;;12.30;99.90;;;;;;4953642;28;20480;-69
2024/04/01 10:06:29;;;;;;;3.13;2.70;;;12.40;99.90;;;;;;4880845;28;20455;-69
2024/04/01 10:09:37;;;;;;;3.83;2.80;;;12.40;99.90;;;;;;4957015;28;20570;-69
2024/04/01 10:12:28;;;;;;;6.60;4.50;;;12.30;99.90;;;;;;4954605;28;20489;-69
2024/04/01 10:15:27;;;;;;;5.30;4.10;;;12.30;99.90;;;;;;4955388;28;20491;-69
2024/04/01 10:18:02;;;;;;;8.47;3.90;;;12.20;99.90;;;;;;4923710;28;20481;-68
2024/04/01 10:21:04;;;;;;;5.10;3.60;;;12.20;99.90;;;;;;4950020;28;20577;-68
2024/04/01 10:24:24;;;;;;;5.30;4.77;;;12.20;99.90;;;;;;4957518;28;20478;-69
2024/04/01 10:27:30;;;;;;;7.83;4.30;;;12.10;99.90;;;;;;4897509;29;20458;-69
2024/04/01 10:30:29;;;;;;;5.80;4.07;;;12.10;99.90;;;;;;4899563;29;20457;-70
2024/04/01 10:33:37;;;;;;;6.60;3.40;;;12.10;99.90;;;;;;4953711;28;20519;-69
2024/04/01 10:36:10;;;;;;;5.40;4.10;;;12.00;99.90;;;;;;4930539;28;21026;-69
2024/04/01 10:39:19;;;;;;;3.57;3.13;;;12.10;99.90;;;;;;4955488;28;20539;-69
2024/04/01 10:42:17;;;;;;;6.07;4.63;;;12.20;99.90;;;;;;4957971;28;20490;-69
2024/04/01 10:45:15;;;;;;;10.47;5.60;;;12.00;99.90;;;;;;4952042;28;20467;-69
2024/04/01 10:48:12;;;;;;;5.00;3.90;;;12.00;99.90;;;;;;4958862;28;20471;-69
2024/04/01 10:51:13;;;;;;;7.63;5.20;;;11.80;99.90;;;;;;4948696;28;21006;-69
2024/04/01 10:53:56;;;;;;;9.57;5.40;;;11.70;99.90;;;;;;4952450;28;20788;-70
2024/04/01 10:57:12;;;;;;;10.83;6.63;;;11.80;99.90;;;;;;4957005;28;20840;-70
2024/04/01 11:00:17;;;;;;;9.70;6.40;;;11.90;99.90;;;;;;4892867;29;20997;-69
2024/04/01 11:03:32;;;;;;;6.73;5.03;;;11.90;99.90;;;;;;4940959;28;20830;-69
2024/04/01 11:06:24;;;;;;;12.47;6.77;;;12.10;99.90;;;;;;4954759;28;20470;-69
2024/04/01 11:09:13;;;;;;;9.77;5.87;;;12.20;99.90;;;;;;4953183;28;20491;-68
2024/04/01 11:11:46;;;;;;;9.40;6.33;;;12.20;99.90;;;;;;4949072;28;20864;-68
2024/04/01 11:14:13;;;;;;;7.33;6.07;;;12.40;99.90;;;;;;4949558;28;20455;-68
2024/04/01 11:16:42;;;;;;;8.37;5.00;;;12.50;99.90;;;;;;4949822;28;20460;-69
2024/04/01 11:19:28;;;;;;;7.20;6.30;;;12.50;99.90;;;;;;4952856;28;20583;-69
2024/04/01 11:21:59;;;;;;;5.30;4.00;;;12.50;99.90;;;;;;4945733;28;20483;-69
2024/04/01 11:24:37;;;;;;;5.67;4.83;;;12.60;99.90;;;;;;4952836;28;20527;-69
2024/04/01 11:27:28;;;;;;;8.37;5.00;;;12.50;99.90;;;;;;4951381;28;20446;-70
2024/04/01 11:30:27;;;;;;;7.47;4.93;;;12.60;99.90;;;;;;4953947;28;20538;-69
2024/04/01 11:33:01;;;;;;;6.40;4.00;;;12.90;99.90;;;;;;4944166;28;20469;-68
2024/04/01 11:35:42;;;;;;;8.67;5.87;;;13.30;99.90;;;;;;4950863;28;20484;-69
2024/04/01 11:38:20;;;;;;;8.93;6.13;;;13.50;99.90;;;;;;4946277;28;20459;-70
2024/04/01 11:40:50;;;;;;;4.87;4.27;;;13.20;99.90;;;;;;4945935;28;21049;-68
2024/04/01 11:43:18;;;;;;;10.17;6.63;;;13.10;99.90;;;;;;4955519;28;20475;-69
2024/04/01 11:45:47;;;;;;;9.70;8.00;;;12.80;99.90;;;;;;4952379;28;20460;-68
2024/04/01 11:48:14;;;;;;;10.27;7.13;;;12.80;99.90;;;;;;4952200;28;20999;-69
2024/04/01 11:50:49;;;;;;;11.93;7.90;;;12.90;99.90;;;;;;4953086;28;20470;-69
2024/04/01 11:53:17;;;;;;;12.33;7.90;;;12.80;99.90;;;;;;4952514;28;20458;-69
2024/04/01 11:55:50;;;;;;;19.73;8.97;;;12.70;99.90;;;;;;4949360;28;20844;-69
2024/04/01 11:58:17;;;;;;;8.30;5.00;;;12.80;99.90;;;;;;4951392;28;20451;-69
2024/04/01 12:00:53;;;;;;;12.37;8.07;;;12.80;99.90;;;;;;4947646;28;20466;-69
2024/04/01 12:03:21;;;;;;;11.07;6.13;;;12.90;99.90;;;;;;4958205;28;20472;-69
2024/04/01 12:05:48;;;;;;;5.93;4.27;;;12.90;99.90;;;;;;4953678;28;20475;-70
2024/04/01 12:08:19;;;;;;;10.10;5.67;;;12.70;99.90;;;;;;4951642;28;20848;-70
2024/04/01 12:10:46;;;;;;;9.00;6.60;;;12.60;99.90;;;;;;4951036;28;20590;-69
2024/04/01 12:13:14;;;;;;;10.70;6.10;;;12.50;99.90;;;;;;4954640;28;20542;-70
2024/04/01 12:15:42;;;;;;;8.73;5.57;;;12.60;99.90;;;;;;4946509;28;20537;-69
2024/04/01 12:18:10;;;;;;;9.90;7.93;;;12.70;99.90;;;;;;4953944;28;20462;-69
2024/04/01 12:20:38;;;;;;;7.73;4.30;;;12.70;99.90;;;;;;4944553;28;20498;-69
2024/04/01 12:23:06;;;;;;;10.53;6.40;;;12.60;99.90;;;;;;4957670;28;20459;-68
2024/04/01 12:25:34;;;;;;;9.43;6.37;;;12.60;99.90;;;;;;4951483;28;20448;-68
2024/04/01 12:28:04;;;;;;;10.90;6.83;;;12.60;99.90;;;;;;4947968;28;20481;-68
2024/04/01 12:30:34;;;;;;;7.17;4.67;;;12.60;99.90;;;;;;4951837;28;20643;-68
2024/04/01 12:33:02;;;;;;;7.53;4.63;;;12.50;99.90;;;;;;4954990;28;21784;-68
2024/04/01 12:35:28;;;;;;;9.10;5.23;;;12.40;99.90;;;;;;4952791;28;20483;-68
2024/04/01 12:37:55;;;;;;;5.03;4.23;;;12.60;99.90;;;;;;4954586;28;20480;-68
2024/04/01 12:40:21;;;;;;;7.20;3.70;;;12.50;99.90;;;;;;4954768;28;20503;-68
2024/04/01 12:42:49;;;;;;;6.67;5.40;;;12.60;99.90;;;;;;4948782;28;20957;-67
2024/04/01 12:45:15;;;;;;;5.80;4.50;;;12.70;99.90;;;;;;4945985;28;20468;-68
2024/04/01 12:47:42;;;;;;;8.47;5.43;;;12.60;99.90;;;;;;4947706;28;20530;-68
2024/04/01 12:50:10;;;;;;;7.73;6.30;;;12.70;99.90;;;;;;4952889;28;20525;-69
2024/04/01 12:52:46;;;;;;;5.17;3.80;;;12.90;99.90;;;;;;4942460;28;20487;-69
2024/04/01 12:55:20;;;;;;;10.00;6.97;;;13.10;99.90;;;;;;4946903;28;20494;-68
2024/04/01 12:58:09;;;;;;;10.43;6.53;;;13.20;99.90;;;;;;4950588;28;20459;-68
2024/04/01 13:00:38;;;;;;;10.70;8.20;;;13.20;99.90;;;;;;4943610;28;20550;-68